sensor_id;sensor_type;location;lat;lon;timestamp;temperature;humidity
23744;DHT22;12052;53.478;10.182;2022-07-26T00:00:01;17.20;99.90
23744;DHT22;12052;53.478;10.182;2022-07-26T00:02:27;17.10;99.90
23744;DHT22;12052;53.478;10.182;2022-07-26T00:04:52;17.10;99.90
23744;DHT22;12052;53.478;10.182;2022-07-26T00:07:18;17.10;99.90
23744;DHT22;12052;53.478;10.182;2022-07-26T00:09:43;17.10;99.90
23744;DHT22;12052;53.478;10.182;2022-07-26T00:12:09;17.10;99.90
23744;DHT22;12052;53.478;10.182;2022-07-26T00:14:35;17.10;99.90
23744;DHT22;12052;53.478;10.182;2022-07-26T00:17:01;17.10;99.90
23744;DHT22;12052;53.478;10.182;2022-07-26T00:19:26;17.00;99.90
23744;DHT22;12052;53.478;10.182;2022-07-26T00:21:52;17.00;99.90
23744;DHT22;12052;53.478;10.182;2022-07-26T00:24:38;17.10;99.90
23744;DHT22;12052;53.478;10.182;2022-07-26T00:27:05;16.90;99.90
23744;DHT22;12052;53.478;10.182;2022-07-26T00:29:31;16.90;99.90
23744;DHT22;12052;53.478;10.182;2022-07-26T00:31:57;16.80;99.90
23744;DHT22;12052;53.478;10.182;2022-07-26T00:34:22;16.90;99.90
23744;DHT22;12052;53.478;10.182;2022-07-26T00:36:48;17.00;99.90
23744;DHT22;12052;53.478;10.182;2022-07-26T00:39:13;17.00;99.90
23744;DHT22;12052;53.478;10.182;2022-07-26T00:41:39;17.00;99.90
23744;DHT22;12052;53.478;10.182;2022-07-26T00:44:05;17.00;99.90
23744;DHT22;12052;53.478;10.182;2022-07-26T00:46:30;17.00;99.90
23744;DHT22;12052;53.478;10.182;2022-07-26T00:48:56;16.90;99.90
23744;DHT22;12052;53.478;10.182;2022-07-26T00:51:21;16.90;99.90
23744;DHT22;12052;53.478;10.182;2022-07-26T00:53:47;16.90;99.90
23744;DHT22;12052;53.478;10.182;2022-07-26T00:56:13;16.80;99.90
23744;DHT22;12052;53.478;10.182;2022-07-26T00:58:40;16.90;99.90
23744;DHT22;12052;53.478;10.182;2022-07-26T01:01:06;16.90;99.90
23744;DHT22;12052;53.478;10.182;2022-07-26T01:03:31;16.80;99.90
23744;DHT22;12052;53.478;10.182;2022-07-26T01:05:58;16.80;99.90
23744;DHT22;12052;53.478;10.182;2022-07-26T01:08:23;16.80;99.90
23744;DHT22;12052;53.478;10.182;2022-07-26T01:10:49;16.80;99.90
23744;DHT22;12052;53.478;10.182;2022-07-26T01:13:22;16.80;99.90
23744;DHT22;12052;53.478;10.182;2022-07-26T01:15:48;16.70;99.90
23744;DHT22;12052;53.478;10.182;2022-07-26T01:18:13;16.70;99.90
23744;DHT22;12052;53.478;10.182;2022-07-26T01:20:40;16.70;99.90
23744;DHT22;12052;53.478;10.182;2022-07-26T01:23:06;16.80;99.90
23744;DHT22;12052;53.478;10.182;2022-07-26T01:25:35;16.60;99.90
23744;DHT22;12052;53.478;10.182;2022-07-26T01:28:02;16.70;99.90
23744;DHT22;12052;53.478;10.182;2022-07-26T01:30:28;16.70;99.90
23744;DHT22;12052;53.478;10.182;2022-07-26T01:32:53;16.70;99.90
23744;DHT22;12052;53.478;10.182;2022-07-26T01:35:19;16.70;99.90
23744;DHT22;12052;53.478;10.182;2022-07-26T01:37:45;16.80;99.90
23744;DHT22;12052;53.478;10.182;2022-07-26T01:40:11;16.70;99.90
23744;DHT22;12052;53.478;10.182;2022-07-26T01:42:36;16.70;99.90
23744;DHT22;12052;53.478;10.182;2022-07-26T01:45:06;16.60;99.90
23744;DHT22;12052;53.478;10.182;2022-07-26T01:47:32;16.70;99.90
23744;DHT22;12052;53.478;10.182;2022-07-26T01:49:57;16.70;99.90
23744;DHT22;12052;53.478;10.182;2022-07-26T01:52:23;16.60;99.90
23744;DHT22;12052;53.478;10.182;2022-07-26T01:54:48;16.60;99.90
23744;DHT22;12052;53.478;10.182;2022-07-26T01:57:14;16.50;99.90
23744;DHT22;12052;53.478;10.182;2022-07-26T01:59:39;16.50;99.90
23744;DHT22;12052;53.478;10.182;2022-07-26T02:02:05;16.50;99.90
23744;DHT22;12052;53.478;10.182;2022-07-26T02:04:30;16.40;99.90
23744;DHT22;12052;53.478;10.182;2022-07-26T02:07:14;16.40;99.90
23744;DHT22;12052;53.478;10.182;2022-07-26T02:09:40;16.50;99.90
23744;DHT22;12052;53.478;10.182;2022-07-26T02:12:06;16.40;99.90
23744;DHT22;12052;53.478;10.182;2022-07-26T02:14:32;16.40;99.90
23744;DHT22;12052;53.478;10.182;2022-07-26T02:16:57;16.30;99.90
23744;DHT22;12052;53.478;10.182;2022-07-26T02:19:25;16.40;99.90
23744;DHT22;12052;53.478;10.182;2022-07-26T02:21:51;16.40;99.90
23744;DHT22;12052;53.478;10.182;2022-07-26T02:24:17;16.30;99.90
23744;DHT22;12052;53.478;10.182;2022-07-26T02:26:42;16.30;99.90
23744;DHT22;12052;53.478;10.182;2022-07-26T02:29:08;16.30;99.90
23744;DHT22;12052;53.478;10.182;2022-07-26T02:31:33;16.30;99.90
23744;DHT22;12052;53.478;10.182;2022-07-26T02:33:59;16.20;99.90
23744;DHT22;12052;53.478;10.182;2022-07-26T02:36:25;16.30;99.90
23744;DHT22;12052;53.478;10.182;2022-07-26T02:38:50;16.20;99.90
23744;DHT22;12052;53.478;10.182;2022-07-26T02:41:16;16.20;99.90
23744;DHT22;12052;53.478;10.182;2022-07-26T02:43:42;16.10;99.90
23744;DHT22;12052;53.478;10.182;2022-07-26T02:46:07;16.10;99.90
23744;DHT22;12052;53.478;10.182;2022-07-26T02:48:33;16.20;99.90
23744;DHT22;12052;53.478;10.182;2022-07-26T02:50:59;16.20;99.90
23744;DHT22;12052;53.478;10.182;2022-07-26T02:53:24;16.20;99.90
23744;DHT22;12052;53.478;10.182;2022-07-26T02:55:50;16.10;99.90
23744;DHT22;12052;53.478;10.182;2022-07-26T02:58:15;16.20;99.90
23744;DHT22;12052;53.478;10.182;2022-07-26T03:00:41;16.10;99.90
23744;DHT22;12052;53.478;10.182;2022-07-26T03:03:07;16.10;99.90
23744;DHT22;12052;53.478;10.182;2022-07-26T03:05:32;16.20;99.90
23744;DHT22;12052;53.478;10.182;2022-07-26T03:07:58;16.20;99.90
23744;DHT22;12052;53.478;10.182;2022-07-26T03:10:24;16.10;99.90
23744;DHT22;12052;53.478;10.182;2022-07-26T03:12:49;16.10;99.90
23744;DHT22;12052;53.478;10.182;2022-07-26T03:15:15;16.10;99.90
23744;DHT22;12052;53.478;10.182;2022-07-26T03:17:40;16.20;99.90
23744;DHT22;12052;53.478;10.182;2022-07-26T03:20:06;16.10;99.90
23744;DHT22;12052;53.478;10.182;2022-07-26T03:22:32;16.10;99.90
23744;DHT22;12052;53.478;10.182;2022-07-26T03:24:58;16.10;99.90
23744;DHT22;12052;53.478;10.182;2022-07-26T03:27:23;16.10;99.90
23744;DHT22;12052;53.478;10.182;2022-07-26T03:29:49;16.10;99.90
23744;DHT22;12052;53.478;10.182;2022-07-26T03:32:14;16.20;99.90
23744;DHT22;12052;53.478;10.182;2022-07-26T03:34:40;16.00;99.90
23744;DHT22;12052;53.478;10.182;2022-07-26T03:37:05;16.10;99.90
23744;DHT22;12052;53.478;10.182;2022-07-26T03:39:31;16.10;99.90
23744;DHT22;12052;53.478;10.182;2022-07-26T03:41:56;16.20;99.90
23744;DHT22;12052;53.478;10.182;2022-07-26T03:44:22;16.20;99.90
23744;DHT22;12052;53.478;10.182;2022-07-26T03:46:48;16.20;99.90
23744;DHT22;12052;53.478;10.182;2022-07-26T03:49:13;16.10;99.90
23744;DHT22;12052;53.478;10.182;2022-07-26T03:51:39;16.20;99.90
23744;DHT22;12052;53.478;10.182;2022-07-26T03:54:04;16.10;99.90
23744;DHT22;12052;53.478;10.182;2022-07-26T03:56:30;16.10;99.90
23744;DHT22;12052;53.478;10.182;2022-07-26T03:59:22;16.20;99.90
23744;DHT22;12052;53.478;10.182;2022-07-26T04:01:50;16.20;99.90
23744;DHT22;12052;53.478;10.182;2022-07-26T04:04:16;16.20;99.90
23744;DHT22;12052;53.478;10.182;2022-07-26T04:06:44;16.20;99.90
23744;DHT22;12052;53.478;10.182;2022-07-26T04:09:10;16.20;99.90
23744;DHT22;12052;53.478;10.182;2022-07-26T04:11:36;16.10;99.90
23744;DHT22;12052;53.478;10.182;2022-07-26T04:14:02;16.20;99.90
23744;DHT22;12052;53.478;10.182;2022-07-26T04:16:27;16.30;99.90
23744;DHT22;12052;53.478;10.182;2022-07-26T04:18:53;16.20;99.90
23744;DHT22;12052;53.478;10.182;2022-07-26T04:21:19;16.30;99.90
23744;DHT22;12052;53.478;10.182;2022-07-26T04:23:44;16.30;99.90
23744;DHT22;12052;53.478;10.182;2022-07-26T04:26:10;16.20;99.90
23744;DHT22;12052;53.478;10.182;2022-07-26T04:28:39;16.30;99.90
23744;DHT22;12052;53.478;10.182;2022-07-26T04:31:05;16.30;99.90
23744;DHT22;12052;53.478;10.182;2022-07-26T04:33:31;16.30;99.90
23744;DHT22;12052;53.478;10.182;2022-07-26T04:35:57;16.30;99.90
23744;DHT22;12052;53.478;10.182;2022-07-26T04:38:23;16.30;99.90
23744;DHT22;12052;53.478;10.182;2022-07-26T04:40:49;16.30;99.90
23744;DHT22;12052;53.478;10.182;2022-07-26T04:43:16;16.30;99.90
23744;DHT22;12052;53.478;10.182;2022-07-26T04:45:43;16.40;99.90
23744;DHT22;12052;53.478;10.182;2022-07-26T04:48:08;16.40;99.90
23744;DHT22;12052;53.478;10.182;2022-07-26T04:50:34;16.50;99.90
23744;DHT22;12052;53.478;10.182;2022-07-26T04:53:00;16.40;99.90
23744;DHT22;12052;53.478;10.182;2022-07-26T04:55:25;16.60;99.90
23744;DHT22;12052;53.478;10.182;2022-07-26T04:57:51;16.60;99.90
23744;DHT22;12052;53.478;10.182;2022-07-26T05:00:18;16.60;99.90
23744;DHT22;12052;53.478;10.182;2022-07-26T05:02:47;16.70;99.90
23744;DHT22;12052;53.478;10.182;2022-07-26T05:05:14;16.80;99.90
23744;DHT22;12052;53.478;10.182;2022-07-26T05:07:44;16.80;99.90
23744;DHT22;12052;53.478;10.182;2022-07-26T05:10:10;16.80;99.90
23744;DHT22;12052;53.478;10.182;2022-07-26T05:12:36;16.90;99.90
23744;DHT22;12052;53.478;10.182;2022-07-26T05:15:03;16.80;99.90
23744;DHT22;12052;53.478;10.182;2022-07-26T05:17:29;16.90;99.90
23744;DHT22;12052;53.478;10.182;2022-07-26T05:19:54;16.90;99.90
23744;DHT22;12052;53.478;10.182;2022-07-26T05:22:20;17.10;99.90
23744;DHT22;12052;53.478;10.182;2022-07-26T05:24:47;17.00;99.90
23744;DHT22;12052;53.478;10.182;2022-07-26T05:27:12;17.00;99.90
23744;DHT22;12052;53.478;10.182;2022-07-26T05:29:38;17.10;99.90
23744;DHT22;12052;53.478;10.182;2022-07-26T05:32:04;17.20;99.90
23744;DHT22;12052;53.478;10.182;2022-07-26T05:34:30;17.10;99.90
23744;DHT22;12052;53.478;10.182;2022-07-26T05:36:56;17.10;99.90
23744;DHT22;12052;53.478;10.182;2022-07-26T05:39:21;17.10;99.90
23744;DHT22;12052;53.478;10.182;2022-07-26T05:41:47;17.20;99.90
23744;DHT22;12052;53.478;10.182;2022-07-26T05:44:12;17.10;99.90
23744;DHT22;12052;53.478;10.182;2022-07-26T05:46:38;17.10;99.90
23744;DHT22;12052;53.478;10.182;2022-07-26T05:49:04;17.10;99.90
23744;DHT22;12052;53.478;10.182;2022-07-26T05:51:31;17.20;99.90
23744;DHT22;12052;53.478;10.182;2022-07-26T05:53:57;17.30;99.90
23744;DHT22;12052;53.478;10.182;2022-07-26T05:56:23;17.30;99.90
23744;DHT22;12052;53.478;10.182;2022-07-26T05:58:49;17.20;99.90
23744;DHT22;12052;53.478;10.182;2022-07-26T06:01:15;17.20;99.90
23744;DHT22;12052;53.478;10.182;2022-07-26T06:03:41;17.30;99.90
23744;DHT22;12052;53.478;10.182;2022-07-26T06:06:07;17.30;99.90
23744;DHT22;12052;53.478;10.182;2022-07-26T06:08:33;17.40;99.90
23744;DHT22;12052;53.478;10.182;2022-07-26T06:11:00;17.40;99.90
23744;DHT22;12052;53.478;10.182;2022-07-26T06:13:26;17.10;99.90
23744;DHT22;12052;53.478;10.182;2022-07-26T06:15:51;16.80;99.90
23744;DHT22;12052;53.478;10.182;2022-07-26T06:18:17;16.70;99.90
23744;DHT22;12052;53.478;10.182;2022-07-26T06:20:44;16.60;99.90
23744;DHT22;12052;53.478;10.182;2022-07-26T06:23:10;16.70;99.90
23744;DHT22;12052;53.478;10.182;2022-07-26T06:25:36;16.70;99.90
23744;DHT22;12052;53.478;10.182;2022-07-26T06:28:04;16.70;99.90
23744;DHT22;12052;53.478;10.182;2022-07-26T06:30:30;16.70;99.90
23744;DHT22;12052;53.478;10.182;2022-07-26T06:32:55;16.60;99.90
23744;DHT22;12052;53.478;10.182;2022-07-26T06:35:21;16.50;99.90
23744;DHT22;12052;53.478;10.182;2022-07-26T06:37:48;16.70;99.90
23744;DHT22;12052;53.478;10.182;2022-07-26T06:40:14;16.80;99.90
23744;DHT22;12052;53.478;10.182;2022-07-26T06:42:40;16.70;99.90
23744;DHT22;12052;53.478;10.182;2022-07-26T06:45:06;16.80;99.90
23744;DHT22;12052;53.478;10.182;2022-07-26T06:47:32;16.80;99.90
23744;DHT22;12052;53.478;10.182;2022-07-26T06:49:58;16.80;99.90
23744;DHT22;12052;53.478;10.182;2022-07-26T06:52:23;16.70;99.90
23744;DHT22;12052;53.478;10.182;2022-07-26T06:54:49;16.80;99.90
23744;DHT22;12052;53.478;10.182;2022-07-26T06:57:14;16.90;99.90
23744;DHT22;12052;53.478;10.182;2022-07-26T06:59:40;16.90;99.90
23744;DHT22;12052;53.478;10.182;2022-07-26T07:02:05;16.90;99.90
23744;DHT22;12052;53.478;10.182;2022-07-26T07:04:32;16.80;99.90
23744;DHT22;12052;53.478;10.182;2022-07-26T07:06:59;17.10;99.90
23744;DHT22;12052;53.478;10.182;2022-07-26T07:09:33;17.20;99.90
23744;DHT22;12052;53.478;10.182;2022-07-26T07:11:59;17.30;99.90
23744;DHT22;12052;53.478;10.182;2022-07-26T07:14:27;17.30;99.90
23744;DHT22;12052;53.478;10.182;2022-07-26T07:16:52;17.30;99.90
23744;DHT22;12052;53.478;10.182;2022-07-26T07:19:18;17.20;99.90
23744;DHT22;12052;53.478;10.182;2022-07-26T07:21:44;17.40;99.90
23744;DHT22;12052;53.478;10.182;2022-07-26T07:24:09;17.30;99.90
23744;DHT22;12052;53.478;10.182;2022-07-26T07:26:35;17.20;99.90
23744;DHT22;12052;53.478;10.182;2022-07-26T07:29:00;17.10;99.90
23744;DHT22;12052;53.478;10.182;2022-07-26T07:31:26;17.00;99.90
23744;DHT22;12052;53.478;10.182;2022-07-26T07:33:51;16.90;99.90
23744;DHT22;12052;53.478;10.182;2022-07-26T07:36:17;16.80;99.90
23744;DHT22;12052;53.478;10.182;2022-07-26T07:38:46;16.70;99.90
23744;DHT22;12052;53.478;10.182;2022-07-26T07:41:12;16.70;99.90
23744;DHT22;12052;53.478;10.182;2022-07-26T07:43:37;16.60;99.90
23744;DHT22;12052;53.478;10.182;2022-07-26T07:46:03;16.50;99.90
23744;DHT22;12052;53.478;10.182;2022-07-26T07:48:29;16.50;99.90
23744;DHT22;12052;53.478;10.182;2022-07-26T07:50:55;16.50;99.90
23744;DHT22;12052;53.478;10.182;2022-07-26T07:53:20;16.60;99.90
23744;DHT22;12052;53.478;10.182;2022-07-26T07:55:46;16.80;99.90
23744;DHT22;12052;53.478;10.182;2022-07-26T07:58:12;17.00;99.90
23744;DHT22;12052;53.478;10.182;2022-07-26T08:00:38;17.10;99.90
23744;DHT22;12052;53.478;10.182;2022-07-26T08:03:04;17.00;99.90
23744;DHT22;12052;53.478;10.182;2022-07-26T08:05:29;16.80;99.90
23744;DHT22;12052;53.478;10.182;2022-07-26T08:07:55;16.60;99.90
23744;DHT22;12052;53.478;10.182;2022-07-26T08:10:21;16.30;99.90
23744;DHT22;12052;53.478;10.182;2022-07-26T08:12:46;16.10;99.90
23744;DHT22;12052;53.478;10.182;2022-07-26T08:15:12;15.90;99.90
23744;DHT22;12052;53.478;10.182;2022-07-26T08:17:37;15.90;99.90
23744;DHT22;12052;53.478;10.182;2022-07-26T08:20:03;15.90;99.90
23744;DHT22;12052;53.478;10.182;2022-07-26T08:22:29;15.90;99.90
23744;DHT22;12052;53.478;10.182;2022-07-26T08:24:55;16.00;99.90
23744;DHT22;12052;53.478;10.182;2022-07-26T08:27:20;16.20;99.90
23744;DHT22;12052;53.478;10.182;2022-07-26T08:29:46;16.30;99.90
23744;DHT22;12052;53.478;10.182;2022-07-26T08:32:11;16.60;99.90
23744;DHT22;12052;53.478;10.182;2022-07-26T08:34:37;16.80;99.90
23744;DHT22;12052;53.478;10.182;2022-07-26T08:37:03;16.90;99.90
23744;DHT22;12052;53.478;10.182;2022-07-26T08:39:28;17.10;99.90
23744;DHT22;12052;53.478;10.182;2022-07-26T08:41:54;17.20;99.90
23744;DHT22;12052;53.478;10.182;2022-07-26T08:44:19;17.30;99.90
23744;DHT22;12052;53.478;10.182;2022-07-26T08:46:45;17.50;99.90
23744;DHT22;12052;53.478;10.182;2022-07-26T08:49:11;17.50;99.90
23744;DHT22;12052;53.478;10.182;2022-07-26T08:51:39;17.50;99.90
23744;DHT22;12052;53.478;10.182;2022-07-26T08:54:05;17.60;99.90
23744;DHT22;12052;53.478;10.182;2022-07-26T08:56:39;17.60;99.90
23744;DHT22;12052;53.478;10.182;2022-07-26T08:59:11;17.60;99.90
23744;DHT22;12052;53.478;10.182;2022-07-26T09:01:59;17.70;99.90
23744;DHT22;12052;53.478;10.182;2022-07-26T09:04:30;17.80;99.90
23744;DHT22;12052;53.478;10.182;2022-07-26T09:07:13;18.00;99.90
23744;DHT22;12052;53.478;10.182;2022-07-26T09:10:03;18.10;99.90
23744;DHT22;12052;53.478;10.182;2022-07-26T09:12:30;18.00;99.90
23744;DHT22;12052;53.478;10.182;2022-07-26T09:14:58;17.90;99.90
23744;DHT22;12052;53.478;10.182;2022-07-26T09:17:35;17.80;99.90
23744;DHT22;12052;53.478;10.182;2022-07-26T09:20:15;17.70;99.90
23744;DHT22;12052;53.478;10.182;2022-07-26T09:25:37;17.60;99.90
23744;DHT22;12052;53.478;10.182;2022-07-26T09:28:20;17.70;99.90
23744;DHT22;12052;53.478;10.182;2022-07-26T09:30:58;17.70;99.90
23744;DHT22;12052;53.478;10.182;2022-07-26T09:33:25;17.60;99.90
23744;DHT22;12052;53.478;10.182;2022-07-26T09:36:04;17.50;99.90
23744;DHT22;12052;53.478;10.182;2022-07-26T09:38:46;17.30;99.90
23744;DHT22;12052;53.478;10.182;2022-07-26T09:43:48;17.10;99.90
23744;DHT22;12052;53.478;10.182;2022-07-26T09:46:14;17.20;99.90
23744;DHT22;12052;53.478;10.182;2022-07-26T09:48:41;17.30;99.90
23744;DHT22;12052;53.478;10.182;2022-07-26T09:51:07;17.40;99.90
23744;DHT22;12052;53.478;10.182;2022-07-26T09:53:41;17.40;99.90
23744;DHT22;12052;53.478;10.182;2022-07-26T09:56:08;17.60;99.90
23744;DHT22;12052;53.478;10.182;2022-07-26T09:58:35;17.70;99.90
23744;DHT22;12052;53.478;10.182;2022-07-26T10:01:01;17.70;99.90
23744;DHT22;12052;53.478;10.182;2022-07-26T10:03:28;17.80;99.90
23744;DHT22;12052;53.478;10.182;2022-07-26T10:05:56;18.00;99.90
23744;DHT22;12052;53.478;10.182;2022-07-26T10:08:22;18.00;99.90
23744;DHT22;12052;53.478;10.182;2022-07-26T10:11:05;17.90;99.90
23744;DHT22;12052;53.478;10.182;2022-07-26T10:13:31;18.00;99.90
23744;DHT22;12052;53.478;10.182;2022-07-26T10:15:57;18.10;99.90
23744;DHT22;12052;53.478;10.182;2022-07-26T10:31:46;18.00;99.90
23744;DHT22;12052;53.478;10.182;2022-07-26T10:34:28;18.20;99.90
23744;DHT22;12052;53.478;10.182;2022-07-26T10:37:00;18.40;99.90
23744;DHT22;12052;53.478;10.182;2022-07-26T10:39:26;18.50;99.90
23744;DHT22;12052;53.478;10.182;2022-07-26T10:42:04;18.60;99.90
23744;DHT22;12052;53.478;10.182;2022-07-26T10:44:33;18.70;99.90
23744;DHT22;12052;53.478;10.182;2022-07-26T10:47:09;19.00;99.90
23744;DHT22;12052;53.478;10.182;2022-07-26T10:55:09;19.00;99.90
23744;DHT22;12052;53.478;10.182;2022-07-26T10:57:39;19.20;99.90
23744;DHT22;12052;53.478;10.182;2022-07-26T11:00:17;19.20;99.90
23744;DHT22;12052;53.478;10.182;2022-07-26T11:02:48;19.20;99.90
23744;DHT22;12052;53.478;10.182;2022-07-26T11:05:16;19.00;99.90
23744;DHT22;12052;53.478;10.182;2022-07-26T11:10:24;19.00;99.90
23744;DHT22;12052;53.478;10.182;2022-07-26T11:15:44;19.20;99.90
23744;DHT22;12052;53.478;10.182;2022-07-26T11:18:27;19.30;99.90
23744;DHT22;12052;53.478;10.182;2022-07-26T11:21:06;19.50;99.90
23744;DHT22;12052;53.478;10.182;2022-07-26T11:23:35;19.50;99.90
23744;DHT22;12052;53.478;10.182;2022-07-26T11:31:20;19.40;99.90
23744;DHT22;12052;53.478;10.182;2022-07-26T11:33:48;19.30;99.90
23744;DHT22;12052;53.478;10.182;2022-07-26T11:36:16;19.50;99.90
23744;DHT22;12052;53.478;10.182;2022-07-26T11:38:53;19.50;99.90
23744;DHT22;12052;53.478;10.182;2022-07-26T11:41:24;19.40;99.90
23744;DHT22;12052;53.478;10.182;2022-07-26T11:43:51;19.40;99.90
23744;DHT22;12052;53.478;10.182;2022-07-26T11:46:17;19.30;99.90
23744;DHT22;12052;53.478;10.182;2022-07-26T11:48:48;19.20;99.90
23744;DHT22;12052;53.478;10.182;2022-07-26T11:51:19;19.20;99.90
23744;DHT22;12052;53.478;10.182;2022-07-26T11:53:45;19.40;99.90
23744;DHT22;12052;53.478;10.182;2022-07-26T11:56:16;19.70;99.90
23744;DHT22;12052;53.478;10.182;2022-07-26T11:58:44;19.80;99.90
23744;DHT22;12052;53.478;10.182;2022-07-26T12:01:12;19.90;99.90
23744;DHT22;12052;53.478;10.182;2022-07-26T12:03:40;20.00;99.90
23744;DHT22;12052;53.478;10.182;2022-07-26T12:06:08;19.90;99.90
23744;DHT22;12052;53.478;10.182;2022-07-26T12:08:48;19.80;99.90
23744;DHT22;12052;53.478;10.182;2022-07-26T12:11:14;19.90;99.90
23744;DHT22;12052;53.478;10.182;2022-07-26T12:13:59;20.00;99.90
23744;DHT22;12052;53.478;10.182;2022-07-26T12:16:46;19.90;99.90
23744;DHT22;12052;53.478;10.182;2022-07-26T12:21:47;19.90;99.90
23744;DHT22;12052;53.478;10.182;2022-07-26T12:24:32;20.10;99.90
23744;DHT22;12052;53.478;10.182;2022-07-26T12:27:14;20.10;99.90
23744;DHT22;12052;53.478;10.182;2022-07-26T12:29:43;19.90;99.90
23744;DHT22;12052;53.478;10.182;2022-07-26T12:37:21;19.70;99.90
23744;DHT22;12052;53.478;10.182;2022-07-26T12:40:09;19.90;99.90
23744;DHT22;12052;53.478;10.182;2022-07-26T12:42:38;19.90;99.90
23744;DHT22;12052;53.478;10.182;2022-07-26T12:45:06;20.00;99.90
23744;DHT22;12052;53.478;10.182;2022-07-26T12:47:34;20.00;99.90
23744;DHT22;12052;53.478;10.182;2022-07-26T12:49:59;19.90;99.90
23744;DHT22;12052;53.478;10.182;2022-07-26T12:52:27;19.80;99.90
23744;DHT22;12052;53.478;10.182;2022-07-26T12:54:53;19.70;99.90
23744;DHT22;12052;53.478;10.182;2022-07-26T12:57:19;19.50;99.90
23744;DHT22;12052;53.478;10.182;2022-07-26T12:59:46;19.50;99.90
23744;DHT22;12052;53.478;10.182;2022-07-26T13:02:12;19.70;99.90
23744;DHT22;12052;53.478;10.182;2022-07-26T13:04:38;19.90;99.90
23744;DHT22;12052;53.478;10.182;2022-07-26T13:07:04;19.90;99.90
23744;DHT22;12052;53.478;10.182;2022-07-26T13:09:30;19.80;99.90
23744;DHT22;12052;53.478;10.182;2022-07-26T13:11:57;19.70;99.90
23744;DHT22;12052;53.478;10.182;2022-07-26T13:14:23;19.90;99.90
23744;DHT22;12052;53.478;10.182;2022-07-26T13:16:49;20.20;99.90
23744;DHT22;12052;53.478;10.182;2022-07-26T13:19:14;20.40;99.90
23744;DHT22;12052;53.478;10.182;2022-07-26T13:21:40;20.50;99.90
23744;DHT22;12052;53.478;10.182;2022-07-26T13:24:06;20.30;99.90
23744;DHT22;12052;53.478;10.182;2022-07-26T13:26:31;20.40;99.90
23744;DHT22;12052;53.478;10.182;2022-07-26T13:28:57;20.30;99.90
23744;DHT22;12052;53.478;10.182;2022-07-26T13:31:23;20.30;99.90
23744;DHT22;12052;53.478;10.182;2022-07-26T13:33:48;20.20;99.90
23744;DHT22;12052;53.478;10.182;2022-07-26T13:36:14;20.10;99.90
23744;DHT22;12052;53.478;10.182;2022-07-26T13:38:39;19.90;99.90
23744;DHT22;12052;53.478;10.182;2022-07-26T13:41:08;19.90;99.90
23744;DHT22;12052;53.478;10.182;2022-07-26T13:43:34;19.90;99.90
23744;DHT22;12052;53.478;10.182;2022-07-26T13:46:00;19.80;99.90
23744;DHT22;12052;53.478;10.182;2022-07-26T13:48:26;19.70;99.90
23744;DHT22;12052;53.478;10.182;2022-07-26T13:50:55;19.60;99.90
23744;DHT22;12052;53.478;10.182;2022-07-26T13:53:22;19.80;99.90
23744;DHT22;12052;53.478;10.182;2022-07-26T13:55:48;19.90;99.90
23744;DHT22;12052;53.478;10.182;2022-07-26T13:58:14;19.90;99.90
23744;DHT22;12052;53.478;10.182;2022-07-26T14:00:39;20.10;99.90
23744;DHT22;12052;53.478;10.182;2022-07-26T14:03:05;20.10;99.90
23744;DHT22;12052;53.478;10.182;2022-07-26T14:05:31;20.10;99.90
23744;DHT22;12052;53.478;10.182;2022-07-26T14:07:56;20.20;99.90
23744;DHT22;12052;53.478;10.182;2022-07-26T14:10:22;20.20;99.90
23744;DHT22;12052;53.478;10.182;2022-07-26T14:12:48;20.20;99.90
23744;DHT22;12052;53.478;10.182;2022-07-26T14:15:15;20.20;99.90
23744;DHT22;12052;53.478;10.182;2022-07-26T14:17:40;20.20;99.90
23744;DHT22;12052;53.478;10.182;2022-07-26T14:20:06;20.30;99.90
23744;DHT22;12052;53.478;10.182;2022-07-26T14:22:32;20.40;99.90
23744;DHT22;12052;53.478;10.182;2022-07-26T14:24:58;20.30;99.90
23744;DHT22;12052;53.478;10.182;2022-07-26T14:27:23;20.20;99.90
23744;DHT22;12052;53.478;10.182;2022-07-26T14:29:49;20.00;99.90
23744;DHT22;12052;53.478;10.182;2022-07-26T14:32:15;19.70;99.90
23744;DHT22;12052;53.478;10.182;2022-07-26T14:34:40;19.70;99.90
23744;DHT22;12052;53.478;10.182;2022-07-26T14:37:06;19.60;99.90
23744;DHT22;12052;53.478;10.182;2022-07-26T14:39:32;19.80;99.90
23744;DHT22;12052;53.478;10.182;2022-07-26T14:41:59;19.70;99.90
23744;DHT22;12052;53.478;10.182;2022-07-26T14:44:25;19.80;99.90
23744;DHT22;12052;53.478;10.182;2022-07-26T14:46:52;19.70;99.90
23744;DHT22;12052;53.478;10.182;2022-07-26T14:49:18;19.70;99.90
23744;DHT22;12052;53.478;10.182;2022-07-26T14:51:43;19.60;99.90
23744;DHT22;12052;53.478;10.182;2022-07-26T14:54:11;19.50;99.90
23744;DHT22;12052;53.478;10.182;2022-07-26T14:56:37;19.50;99.90
23744;DHT22;12052;53.478;10.182;2022-07-26T14:59:02;19.60;99.90
23744;DHT22;12052;53.478;10.182;2022-07-26T15:01:28;19.70;99.90
23744;DHT22;12052;53.478;10.182;2022-07-26T15:03:54;19.60;99.90
23744;DHT22;12052;53.478;10.182;2022-07-26T15:06:19;19.60;99.90
23744;DHT22;12052;53.478;10.182;2022-07-26T15:08:45;19.60;99.90
23744;DHT22;12052;53.478;10.182;2022-07-26T15:11:10;19.50;99.90
23744;DHT22;12052;53.478;10.182;2022-07-26T15:13:36;19.50;99.90
23744;DHT22;12052;53.478;10.182;2022-07-26T15:16:01;19.40;99.90
23744;DHT22;12052;53.478;10.182;2022-07-26T15:18:27;19.30;99.90
23744;DHT22;12052;53.478;10.182;2022-07-26T15:20:52;19.20;99.90
23744;DHT22;12052;53.478;10.182;2022-07-26T15:23:18;19.30;99.90
23744;DHT22;12052;53.478;10.182;2022-07-26T15:25:44;19.20;99.90
23744;DHT22;12052;53.478;10.182;2022-07-26T15:28:09;19.20;99.90
23744;DHT22;12052;53.478;10.182;2022-07-26T15:30:35;19.20;99.90
23744;DHT22;12052;53.478;10.182;2022-07-26T15:33:01;19.40;99.90
23744;DHT22;12052;53.478;10.182;2022-07-26T15:35:28;19.60;99.90
23744;DHT22;12052;53.478;10.182;2022-07-26T15:37:54;19.70;99.90
23744;DHT22;12052;53.478;10.182;2022-07-26T15:40:19;19.70;99.90
23744;DHT22;12052;53.478;10.182;2022-07-26T15:42:45;19.80;99.90
23744;DHT22;12052;53.478;10.182;2022-07-26T15:45:13;19.80;99.90
23744;DHT22;12052;53.478;10.182;2022-07-26T15:47:40;19.90;99.90
23744;DHT22;12052;53.478;10.182;2022-07-26T15:50:08;19.90;99.90
23744;DHT22;12052;53.478;10.182;2022-07-26T15:52:40;19.90;99.90
23744;DHT22;12052;53.478;10.182;2022-07-26T15:55:08;19.90;99.90
23744;DHT22;12052;53.478;10.182;2022-07-26T15:57:34;19.80;99.90